This is the latest recevied weather packets stored in our database for station/object W1MJC. If no packets are shown the sender has not sent any weather packets the latest 10 day(s).
| Time | Temp. | Humidity | Pressure | Rain* | Wind** | Luminosity | Snow |
|---|---|---|---|---|---|---|---|
| 1777594526 | 8.89° C | 56% | 1010.4 hPa | 0 mm | - | - | - |
| 1777586732 | 10° C | 51% | 1010.6 hPa | 0 mm | - | - | - |
| 1777575319 | 10° C | 54% | 1011.4 hPa | 0 mm | - | - | - |
| 1777573540 | 10.56° C | 54% | 1011.5 hPa | 0 mm | - | - | - |
| 1777563925 | 9.44° C | 67% | 1011.9 hPa | 0 mm | - | - | - |
| 1777560928 | 8.33° C | 74% | 1012 hPa | 0 mm | - | - | - |
| 1777559718 | 7.78° C | 76% | 1012 hPa | 0 mm | - | - | - |
| 1777559122 | 7.22° C | 75% | 1012 hPa | 0 mm | - | - | - |
| 1777556125 | 7.22° C | 83% | 1011.6 hPa | 0 mm | - | - | - |
| 1777553717 | 6.67° C | 90% | 1011.5 hPa | 0 mm | - | - | - |
| 1777530931 | 5° C | 99% | 1010.8 hPa | 0.76 mm | - | - | - |
| 1777524322 | 5.56° C | 99% | 1010.4 hPa | 0 mm | - | - | - |
| 1777523726 | 5.56° C | 99% | 1010.4 hPa | 0 mm | - | - | - |
| 1777522516 | 5.56° C | 99% | 1010.4 hPa | 0 mm | - | - | - |
| 1777521325 | 6.11° C | 99% | 1010.3 hPa | 0.25 mm | - | - | - |
| 1777519519 | 6.11° C | 99% | 1010.2 hPa | 0.25 mm | - | - | - |
| 1777511138 | 7.22° C | 98% | 1008.8 hPa | 0.25 mm | - | - | - |
| 1777509926 | 7.22° C | 97% | 1008.6 hPa | 0.25 mm | - | - | - |
| 1777508736 | 7.22° C | 98% | 1008.4 hPa | 0.51 mm | - | - | - |
| 1777503338 | 8.89° C | 93% | 1008.1 hPa | 0 mm | - | - | - |
| 1777499744 | 9.44° C | 93% | 1007.7 hPa | 0.51 mm | - | - | - |
| 1777499128 | 9.44° C | 91% | 1007.7 hPa | 0.25 mm | - | - | - |
| 1777497918 | 10° C | 92% | 1007.6 hPa | 0.25 mm | - | - | - |
| 1777491327 | 11.11° C | 82% | 1007.6 hPa | 0 mm | - | - | - |
| 1777490117 | 11.67° C | 78% | 1007.7 hPa | 0 mm | - | - | - |
* Rain latest hour (hover to see other rain measurements)
** Current wind speed in m/s (hover to see current wind gust speed)